Tupelo Regional Airport
KTUP : now visible

Airfield :











YOU CAN JOIN US ON...

 
LOGIN :

Register | Disclaimer

   EN    FR    IT 

 









Legend :    VFR   Marginal VFR   IFR   Intensive IFR   Very Intensive IFR
Visi :
Ceiling :
>= 8 km
>= 3000ft
5 to 8 km
1000 to 3000 ft
1500m to 5 km
500 to 1000 ft
800 to 1500m
200 to 500 ft
< 800m
< 200 ft
Symbols :   Thunderstorms  Fog  Heavy snow  Heavy precipitations  Wind > 20 kt






- Airport Elevation : 346 ft
- IATA code : TUP


KTUP - Tupelo Regional

CURRENT METAR :
  • 161024Z AUTO 17009KT 10SM OVC009 17/14 A2994 RMK AO2 T01670144

EXPIRED METARs :
  • 160953Z AUTO 18009KT 10SM OVC010 17/14 A2995 RMK AO2 SLP139 T01720144
  • 160853Z AUTO 18012KT 10SM OVC010 17/14 A2996 RMK AO2 SLP142 T01720144 53008
  • 160753Z AUTO 19010G20KT 10SM OVC013 17/14 A2995 RMK AO2 SLP140 T01720144
  • 160738Z AUTO 19012KT 10SM OVC014 17/14 A2995 RMK AO2 T01720144

TAF KTUP
Valid from the 16 at 06:00 until the 17 at 06:00 UTC


160526Z 1606/1706 19011KT 6SM BR VCSH SCT010 BKN025 WS020/21045KT
FM161300 20008KT 6SM -SHRA SCT007 BKN015 WS020/20045KT
FM162100 22013G22KT 6SM -SHRA VCTS SCT015 BKN025CB WS020/23050KT
TEMPO 1622/1624 27020G30KT 1SM TSRA OVC009CB
FM170000 31011KT 6SM -RA BR OVC008



MET'MAP, your aeronautical weather chart ! - Copyright ORBIFLY December 2007 - Disclaimer

ORBIFLY MET'MAP TEAM :

Programming & Development : Alexandra Zaïnal
Concept & original design : Baudouin d'Aumeries
Assistance for programming : Marc-Olivier Méhu
Technical & hardware support : Manuel Goepfert

Contact : metmap@orbifly.com




SOURCES & CREDITS :

   NOAA       Earth
Advisory